Time;durP1;ratioP1;P1;durP2;ratioP2;P2;SDS_P1;SDS_P2;PMS_P1;PMS_P2;Temp;Humidity;BMP_temperature;BMP_pressure;BME280_temperature;BME280_humidity;BME280_pressure;Samples;Min_cycle;Max_cycle;Signal;HPM_P1;HPM_P2
2021/01/31 00:00:47;;;;;;;8.10;6.57;;;;;;;2.67;100.00;94381.47;5057889;28;20497;-87
2021/01/31 00:03:15;;;;;;;10.63;7.33;;;;;;;2.53;100.00;94378.31;5058277;28;20981;-87
2021/01/31 00:05:43;;;;;;;10.03;7.17;;;;;;;2.45;100.00;94379.56;5058325;28;20484;-86
2021/01/31 00:08:11;;;;;;;10.40;7.37;;;;;;;2.43;100.00;94380.09;5068857;28;20422;-87
2021/01/31 00:10:38;;;;;;;10.63;8.00;;;;;;;2.65;100.00;94378.66;5079271;28;20493;-86
2021/01/31 00:13:06;;;;;;;10.90;8.17;;;;;;;2.57;100.00;94378.66;5077959;28;20538;-86
2021/01/31 00:15:35;;;;;;;22.37;8.73;;;;;;;2.48;100.00;94375.81;5079856;28;20801;-87
2021/01/31 00:18:02;;;;;;;9.23;7.00;;;;;;;2.40;100.00;94375.13;5080147;28;20426;-87
2021/01/31 00:20:30;;;;;;;11.43;7.47;;;;;;;2.43;100.00;94380.09;5080187;28;20506;-86
2021/01/31 00:22:57;;;;;;;11.47;8.10;;;;;;;2.37;100.00;94379.59;5068571;28;20473;-87
2021/01/31 00:25:23;;;;;;;9.93;7.13;;;;;;;2.46;100.00;94378.31;5058706;28;20434;-86
2021/01/31 00:27:51;;;;;;;31.17;9.93;;;;;;;2.38;100.00;94383.66;5060894;28;20422;-86
2021/01/31 00:30:21;;;;;;;10.30;7.73;;;;;;;2.12;100.00;94392.72;5057386;28;20426;-86
2021/01/31 00:32:48;;;;;;;13.97;9.60;;;;;;;2.26;100.00;94393.22;5057947;28;20657;-87
2021/01/31 00:35:16;;;;;;;13.70;9.37;;;;;;;2.17;100.00;94394.47;5057137;28;20509;-86
2021/01/31 00:37:43;;;;;;;10.50;7.67;;;;;;;2.22;100.00;94408.16;5057063;28;20484;-87
2021/01/31 00:40:10;;;;;;;11.77;7.77;;;;;;;2.15;100.00;94410.28;5057706;28;20454;-87
2021/01/31 00:42:37;;;;;;;10.30;7.47;;;;;;;2.23;100.00;94406.88;5056359;28;20478;-87
2021/01/31 00:45:07;;;;;;;17.73;8.60;;;;;;;2.24;100.00;94401.03;5057082;28;20505;-87
2021/01/31 00:47:34;;;;;;;15.13;8.63;;;;;;;2.17;100.00;94404.41;5055728;28;20411;-87
2021/01/31 00:50:00;;;;;;;11.03;8.30;;;;;;;2.19;100.00;94406.56;5056824;28;20454;-87
2021/01/31 00:52:26;;;;;;;12.80;8.30;;;;;;;2.14;100.00;94413.44;5056937;28;20805;-86
2021/01/31 00:54:53;;;;;;;15.17;9.87;;;;;;;2.23;100.00;94409.53;5056534;28;20438;-87
2021/01/31 00:57:19;;;;;;;11.40;8.10;;;;;;;2.16;100.00;94409.03;5057108;28;20425;-87
2021/01/31 00:59:46;;;;;;;12.03;8.50;;;;;;;2.10;100.00;94405.81;5056589;28;20438;-87
2021/01/31 01:02:17;;;;;;;14.57;9.00;;;;;;;2.22;100.00;94397.50;5056030;28;20486;-87
2021/01/31 01:04:44;;;;;;;11.63;8.30;;;;;;;2.19;100.00;94398.56;5056472;28;20433;-87
2021/01/31 01:07:11;;;;;;;11.70;8.97;;;;;;;2.15;100.00;94404.97;5055868;28;20442;-87
2021/01/31 01:09:38;;;;;;;13.73;8.53;;;;;;;2.15;100.00;94409.56;5056605;28;20446;-87
2021/01/31 01:12:05;;;;;;;13.40;9.70;;;;;;;2.15;100.00;94412.94;5055866;28;20450;-87
2021/01/31 01:14:31;;;;;;;12.40;8.90;;;;;;;2.19;100.00;94407.25;5056859;28;20454;-87
2021/01/31 01:16:58;;;;;;;12.53;9.30;;;;;;;2.19;100.00;94409.94;5056253;28;20497;-87
2021/01/31 01:19:25;;;;;;;16.93;10.40;;;;;;;2.15;100.00;94414.88;5056346;28;20453;-87
2021/01/31 01:21:51;;;;;;;11.87;8.60;;;;;;;2.10;100.00;94403.16;5056251;28;20494;-87
2021/01/31 01:24:18;;;;;;;13.20;9.53;;;;;;;1.99;100.00;94416.81;5056043;28;20449;-87
2021/01/31 01:26:44;;;;;;;15.67;10.67;;;;;;;2.04;100.00;94417.88;5056017;28;20508;-87
2021/01/31 01:29:11;;;;;;;24.70;12.10;;;;;;;2.10;100.00;94419.13;5054957;28;20435;-87
2021/01/31 01:31:37;;;;;;;16.60;10.87;;;;;;;2.20;100.00;94415.94;5055304;28;20517;-87
2021/01/31 01:34:04;;;;;;;17.57;10.80;;;;;;;2.22;100.00;94424.81;5055577;28;20482;-87
2021/01/31 01:36:32;;;;;;;24.80;11.77;;;;;;;2.14;100.00;94421.44;5055736;28;20448;-87
2021/01/31 01:38:59;;;;;;;42.77;12.13;;;;;;;2.06;100.00;94423.38;5055630;28;20518;-86
2021/01/31 01:41:26;;;;;;;34.87;11.83;;;;;;;2.26;100.00;94419.84;5054920;28;20489;-87
2021/01/31 01:43:53;;;;;;;13.40;9.57;;;;;;;2.22;100.00;94408.88;5055559;28;20800;-87
2021/01/31 01:46:35;;;;;;;13.33;9.50;;;;;;;2.11;100.00;94417.19;5055358;28;20411;-87
2021/01/31 01:49:07;;;;;;;15.17;10.00;;;;;;;2.02;100.00;94413.09;5055437;28;20514;-87
2021/01/31 01:51:43;;;;;;;16.37;11.40;;;;;;;2.02;100.00;94418.41;5054733;28;20815;-87
2021/01/31 01:54:14;;;;;;;14.37;10.80;;;;;;;2.00;100.00;94415.59;5056429;28;20531;-86
2021/01/31 01:56:44;;;;;;;19.63;10.80;;;;;;;2.09;100.00;94422.31;5055456;28;20422;-87
2021/01/31 01:59:11;;;;;;;16.17;9.90;;;;;;;2.09;100.00;94417.72;5055134;28;20451;-87
2021/01/31 02:01:45;;;;;;;13.73;10.03;;;;;;;2.19;100.00;94414.53;5056113;28;20508;-86
2021/01/31 02:04:12;;;;;;;15.30;10.77;;;;;;;2.22;100.00;94414.19;5055224;28;20461;-86
2021/01/31 02:06:39;;;;;;;15.07;10.23;;;;;;;2.34;100.00;94420.56;5055233;28;20530;-86
2021/01/31 02:09:07;;;;;;;16.57;11.67;;;;;;;2.26;100.00;94424.44;5055755;28;20803;-86
2021/01/31 02:11:33;;;;;;;18.40;10.93;;;;;;;2.27;100.00;94423.22;5055741;28;20435;-86
2021/01/31 02:14:07;;;;;;;33.87;11.90;;;;;;;2.19;100.00;94425.88;5055675;28;20438;-86
2021/01/31 02:16:48;;;;;;;13.83;10.77;;;;;;;2.24;100.00;94418.97;5055556;28;20409;-86
2021/01/31 02:19:35;;;;;;;18.57;11.17;;;;;;;2.21;100.00;94420.03;5055352;28;20435;-86
2021/01/31 02:22:33;;;;;;;22.93;11.97;;;;;;;2.21;100.00;94434.03;5055363;28;20494;-87
2021/01/31 02:25:34;;;;;;;16.10;10.60;;;;;;;2.21;100.00;94428.00;5055196;28;20506;-87
2021/01/31 02:28:39;;;;;;;14.07;10.10;;;;;;;2.21;100.00;94428.72;5055070;28;20430;-88
2021/01/31 02:31:30;;;;;;;20.20;10.97;;;;;;;2.25;100.00;94433.69;5053580;28;20526;-87
2021/01/31 02:34:00;;;;;;;17.80;11.87;;;;;;;2.05;100.00;94443.94;5055298;28;20442;-87
2021/01/31 02:36:39;;;;;;;17.53;11.40;;;;;;;2.06;100.00;94445.38;5054741;28;20431;-87
2021/01/31 02:39:18;;;;;;;15.80;10.47;;;;;;;2.27;100.00;94445.22;5054852;28;20423;-87
2021/01/31 02:41:52;;;;;;;18.00;11.87;;;;;;;2.15;100.00;94447.50;5056004;28;20511;-87
2021/01/31 02:44:22;;;;;;;18.97;11.90;;;;;;;2.02;100.00;94447.66;5056099;28;20422;-87
2021/01/31 02:46:55;;;;;;;19.83;13.43;;;;;;;1.98;100.00;94451.91;5055728;28;20495;-87
2021/01/31 02:49:26;;;;;;;20.70;13.00;;;;;;;1.83;100.00;94457.19;5056509;28;20506;-87
2021/01/31 02:52:01;;;;;;;17.87;12.33;;;;;;;1.85;100.00;94466.06;5056062;28;20985;-86
2021/01/31 02:54:32;;;;;;;16.57;11.63;;;;;;;1.94;100.00;94465.53;5056268;28;20458;-87
2021/01/31 02:57:03;;;;;;;23.93;12.50;;;;;;;1.98;100.00;94467.88;5056477;28;20790;-87
2021/01/31 02:59:38;;;;;;;21.43;12.70;;;;;;;1.89;100.00;94474.41;5055511;28;20407;-87
2021/01/31 03:02:09;;;;;;;19.67;12.83;;;;;;;1.88;100.00;94467.66;5055270;28;20500;-86
2021/01/31 03:04:39;;;;;;;19.37;12.47;;;;;;;1.83;100.00;94465.19;5055602;28;20430;-87
2021/01/31 03:07:10;;;;;;;18.73;12.10;;;;;;;1.61;100.00;94464.59;5055700;28;20577;-87
2021/01/31 03:09:45;;;;;;;19.23;12.67;;;;;;;1.69;100.00;94477.19;5055607;28;20908;-87
2021/01/31 03:12:18;;;;;;;20.10;13.20;;;;;;;1.56;100.00;94472.72;5057743;28;20449;-87
2021/01/31 03:14:51;;;;;;;18.50;12.90;;;;;;;1.55;100.00;94474.66;5059230;28;20433;-87
2021/01/31 03:17:22;;;;;;;18.37;11.33;;;;;;;1.64;100.00;94473.44;5060202;28;20430;-87
2021/01/31 03:19:54;;;;;;;18.13;11.17;;;;;;;1.52;100.00;94478.38;5067321;28;20391;-87
2021/01/31 03:22:26;;;;;;;23.80;12.53;;;;;;;1.45;100.00;94478.34;5081042;28;20477;-86
2021/01/31 03:24:56;;;;;;;18.80;12.57;;;;;;;1.56;100.00;94486.72;5080913;28;20430;-86
2021/01/31 03:27:29;;;;;;;19.90;12.60;;;;;;;1.63;100.00;94476.66;5081213;28;20427;-86
2021/01/31 03:29:55;;;;;;;19.60;12.77;;;;;;;1.63;100.00;94480.00;5061818;28;20911;-87
2021/01/31 03:32:27;;;;;;;18.57;12.50;;;;;;;1.53;100.00;94479.09;5058975;28;20476;-87
2021/01/31 03:34:57;;;;;;;16.27;11.50;;;;;;;1.48;100.00;94469.31;5059586;28;20771;-87
2021/01/31 03:37:39;;;;;;;21.93;13.80;;;;;;;1.54;100.00;94475.91;5059431;28;20434;-87
2021/01/31 03:40:09;;;;;;;16.40;10.50;;;;;;;1.56;100.00;94464.75;5059359;28;20418;-86
2021/01/31 03:42:36;;;;;;;17.70;11.87;;;;;;;1.46;100.00;94469.84;5058669;28;20946;-87
2021/01/31 03:45:08;;;;;;;19.17;11.73;;;;;;;1.44;100.00;94466.31;5058846;28;20824;-87
2021/01/31 03:47:41;;;;;;;22.63;13.23;;;;;;;1.54;100.00;94465.28;5058886;28;20434;-86
2021/01/31 03:50:09;;;;;;;22.77;13.50;;;;;;;1.47;100.00;94468.59;5077047;28;20432;-86
2021/01/31 03:52:35;;;;;;;22.93;13.40;;;;;;;1.63;100.00;94469.38;5080435;28;20455;-87
2021/01/31 03:55:02;;;;;;;22.10;12.30;;;;;;;1.63;100.00;94471.34;5079984;28;20407;-86
2021/01/31 03:57:33;;;;;;;19.30;12.93;;;;;;;1.50;100.00;94472.88;5059682;28;20446;-86
2021/01/31 04:00:06;;;;;;;19.30;12.90;;;;;;;1.50;100.00;94470.22;5059500;28;20488;-87
2021/01/31 04:02:38;;;;;;;20.50;13.43;;;;;;;1.52;100.00;94475.00;5059531;28;20461;-87
2021/01/31 04:05:07;;;;;;;16.70;12.03;;;;;;;1.54;100.00;94488.47;5059923;28;20430;-87
2021/01/31 04:07:38;;;;;;;18.53;11.73;;;;;;;1.54;100.00;94499.09;5058969;28;20494;-87
2021/01/31 04:10:07;;;;;;;20.57;13.90;;;;;;;1.57;100.00;94501.41;5058926;28;20411;-87
2021/01/31 04:12:35;;;;;;;20.70;13.60;;;;;;;1.73;100.00;94517.41;5058452;28;20537;-87
2021/01/31 04:15:09;;;;;;;20.80;12.63;;;;;;;1.68;100.00;94518.28;5058640;28;20857;-87
2021/01/31 04:17:42;;;;;;;18.93;13.00;;;;;;;1.58;100.00;94507.44;5058935;28;20454;-87
2021/01/31 04:20:10;;;;;;;19.30;13.20;;;;;;;1.62;100.00;94507.81;5058769;28;20433;-87
2021/01/31 04:22:37;;;;;;;20.70;14.10;;;;;;;1.74;100.00;94514.25;5057434;28;20932;-87
2021/01/31 04:25:04;;;;;;;18.33;13.00;;;;;;;1.75;100.00;94513.03;5058975;28;20533;-87
2021/01/31 04:27:31;;;;;;;18.80;12.87;;;;;;;1.76;100.00;94508.41;5057975;28;20938;-87
2021/01/31 04:29:57;;;;;;;16.97;10.47;;;;;;;1.83;100.00;94505.78;5057791;28;20541;-88
2021/01/31 04:32:24;;;;;;;19.50;12.57;;;;;;;1.84;100.00;94501.88;5057972;28;20459;-87
2021/01/31 04:34:50;;;;;;;21.50;13.47;;;;;;;2.01;100.00;94518.03;5058298;28;20926;-88
2021/01/31 04:37:18;;;;;;;18.97;12.30;;;;;;;2.07;100.00;94517.88;5058691;28;20434;-87
2021/01/31 04:39:45;;;;;;;15.40;10.33;;;;;;;2.02;100.00;94519.47;5058149;28;20423;-87
2021/01/31 04:42:12;;;;;;;16.40;11.17;;;;;;;1.89;100.00;94513.56;5058299;28;20486;-87
2021/01/31 04:44:39;;;;;;;17.70;11.77;;;;;;;1.86;100.00;94520.66;5057898;28;20437;-87
2021/01/31 04:47:12;;;;;;;18.70;11.70;;;;;;;1.90;100.00;94515.72;5057754;28;20449;-87
2021/01/31 04:49:52;;;;;;;15.73;11.10;;;;;;;1.97;100.00;94514.31;5058168;28;20425;-87
2021/01/31 04:52:30;;;;;;;13.63;10.53;;;;;;;1.83;100.00;94505.06;5057325;28;20866;-87
2021/01/31 04:55:14;;;;;;;20.07;11.40;;;;;;;1.84;100.00;94501.16;5057680;28;20430;-87
2021/01/31 04:57:46;;;;;;;15.73;10.67;;;;;;;1.82;100.00;94498.31;5058256;28;20840;-87
2021/01/31 05:00:19;;;;;;;16.60;11.50;;;;;;;1.80;100.00;94498.13;5058143;28;20430;-88
2021/01/31 05:02:51;;;;;;;17.93;11.87;;;;;;;1.68;100.00;94500.41;5057647;28;20498;-88
2021/01/31 05:05:20;;;;;;;18.50;11.10;;;;;;;1.71;100.00;94504.66;5058674;28;20431;-88
2021/01/31 05:07:52;;;;;;;21.10;13.13;;;;;;;1.66;100.00;94508.19;5058226;28;20434;-88
2021/01/31 05:10:20;;;;;;;20.10;12.90;;;;;;;1.67;100.00;94506.22;5057520;28;20427;-88
2021/01/31 05:13:05;;;;;;;18.47;12.57;;;;;;;1.82;100.00;94498.31;5057816;28;20523;-87
2021/01/31 05:15:38;;;;;;;19.33;11.87;;;;;;;1.82;100.00;94501.69;5058409;28;20478;-88
2021/01/31 05:18:07;;;;;;;17.57;11.60;;;;;;;1.81;100.00;94497.63;5057701;28;20517;-87
2021/01/31 05:20:36;;;;;;;17.07;11.80;;;;;;;1.83;100.00;94497.06;5057240;28;20450;-88
2021/01/31 05:23:04;;;;;;;17.57;11.60;;;;;;;1.89;100.00;94500.28;5057060;28;20482;-88
2021/01/31 05:25:36;;;;;;;16.50;10.90;;;;;;;1.89;100.00;94505.59;5057887;28;20481;-88
2021/01/31 05:28:05;;;;;;;19.33;11.47;;;;;;;1.84;100.00;94501.88;5057158;28;20456;-88
2021/01/31 05:30:33;;;;;;;19.20;12.80;;;;;;;1.90;100.00;94493.75;5056897;28;20446;-87
2021/01/31 05:33:03;;;;;;;17.00;12.07;;;;;;;1.96;100.00;94492.34;5057104;28;20520;-87
2021/01/31 05:35:31;;;;;;;17.00;11.40;;;;;;;1.99;100.00;94493.94;5056836;28;20431;-87
2021/01/31 05:37:58;;;;;;;19.47;11.60;;;;;;;1.97;100.00;94501.03;5057055;28;20453;-86
2021/01/31 05:40:32;;;;;;;17.20;12.80;;;;;;;1.92;100.00;94496.56;5057067;28;20438;-86
2021/01/31 05:42:59;;;;;;;19.00;12.73;;;;;;;1.90;100.00;94493.75;5056741;28;20485;-86
2021/01/31 05:45:36;;;;;;;18.70;11.53;;;;;;;1.91;100.00;94503.81;5057370;28;20541;-86
2021/01/31 05:48:15;;;;;;;16.10;10.57;;;;;;;1.92;100.00;94512.53;5057846;28;20480;-87
2021/01/31 05:50:43;;;;;;;19.30;13.70;;;;;;;1.98;100.00;94507.75;5057270;28;20426;-86
2021/01/31 05:53:29;;;;;;;19.67;12.00;;;;;;;1.91;100.00;94508.47;5056555;28;20462;-86
2021/01/31 05:56:15;;;;;;;16.40;11.67;;;;;;;1.94;100.00;94521.38;5057609;28;20415;-87
2021/01/31 05:58:42;;;;;;;20.93;11.33;;;;;;;2.06;100.00;94521.78;5056933;28;20407;-87
2021/01/31 06:01:10;;;;;;;17.70;12.00;;;;;;;2.13;100.00;94524.47;5057236;28;20438;-87
2021/01/31 06:03:36;;;;;;;22.57;13.33;;;;;;;1.96;100.00;94528.84;5057665;28;20450;-88
2021/01/31 06:06:16;;;;;;;19.60;12.07;;;;;;;2.01;100.00;94531.34;5058109;28;20552;-88
2021/01/31 06:08:45;;;;;;;17.50;11.40;;;;;;;2.04;100.00;94532.22;5058436;28;20427;-88
2021/01/31 06:11:22;;;;;;;18.83;11.30;;;;;;;2.02;100.00;94538.09;5057179;28;20517;-87
2021/01/31 06:14:02;;;;;;;17.77;12.27;;;;;;;2.02;100.00;94538.09;5057295;28;20458;-87
2021/01/31 06:16:29;;;;;;;16.50;11.30;;;;;;;2.03;100.00;94541.47;5057594;28;20521;-87
2021/01/31 06:19:04;;;;;;;17.13;11.07;;;;;;;2.06;100.00;94540.41;5074690;28;20429;-87
2021/01/31 06:21:40;;;;;;;17.53;10.67;;;;;;;2.00;100.00;94540.56;5077534;28;20505;-86
2021/01/31 06:24:21;;;;;;;19.00;12.80;;;;;;;2.03;100.00;94539.53;5078003;28;20435;-86
2021/01/31 06:26:49;;;;;;;17.37;11.83;;;;;;;2.00;100.00;94540.56;5070639;28;20430;-87
2021/01/31 06:29:25;;;;;;;15.97;10.83;;;;;;;1.97;100.00;94538.25;5058744;28;20449;-85
2021/01/31 06:31:56;;;;;;;16.97;11.07;;;;;;;1.84;100.00;94554.34;5057220;28;20466;-86
2021/01/31 06:34:22;;;;;;;20.80;12.73;;;;;;;1.89;100.00;94556.84;5058078;28;20444;-86
2021/01/31 06:37:01;;;;;;;18.97;11.17;;;;;;;1.80;100.00;94556.63;5059854;28;20529;-87
2021/01/31 06:39:42;;;;;;;18.83;12.33;;;;;;;1.78;100.00;94556.44;5059617;28;20518;-85
2021/01/31 06:42:17;;;;;;;20.43;12.33;;;;;;;2.02;100.00;94566.63;5068580;28;20514;-85
2021/01/31 06:45:02;;;;;;;18.93;11.20;;;;;;;1.95;100.00;94562.69;5071714;28;20438;-86
2021/01/31 06:47:44;;;;;;;24.10;12.97;;;;;;;2.06;100.00;94570.38;5060753;28;20441;-86
2021/01/31 06:50:19;;;;;;;16.87;11.90;;;;;;;2.09;100.00;94564.00;5062089;28;20431;-87
2021/01/31 06:52:57;;;;;;;17.50;12.17;;;;;;;2.20;100.00;94564.91;5062536;28;20522;-87
2021/01/31 06:55:53;;;;;;;17.10;11.43;;;;;;;2.08;100.00;94565.22;5062762;28;20504;-87
2021/01/31 06:58:44;;;;;;;20.67;12.20;;;;;;;2.08;100.00;94575.88;5069361;28;20438;-86
2021/01/31 07:01:34;;;;;;;18.87;12.20;;;;;;;2.02;100.00;94577.97;5069621;28;20426;-86
2021/01/31 07:04:27;;;;;;;19.77;13.60;;;;;;;2.07;100.00;94589.69;5062715;28;20473;-87
2021/01/31 07:07:29;;;;;;;16.13;11.20;;;;;;;2.26;100.00;94586.72;5061974;28;20494;-88
2021/01/31 07:10:10;;;;;;;17.20;11.70;;;;;;;2.12;100.00;94589.53;5061862;28;20800;-86
2021/01/31 07:12:49;;;;;;;19.17;11.53;;;;;;;2.13;100.00;94593.63;5061142;28;20458;-87
2021/01/31 07:15:19;;;;;;;16.30;11.20;;;;;;;2.00;100.00;94601.75;5060409;28;20430;-87
2021/01/31 07:17:54;;;;;;;17.90;11.20;;;;;;;2.21;100.00;94598.25;5061345;28;20515;-88
2021/01/31 07:20:25;;;;;;;18.83;11.23;;;;;;;2.06;100.00;94602.28;5060655;28;20914;-88
2021/01/31 07:22:58;;;;;;;18.83;11.43;;;;;;;2.06;100.00;94601.56;5061048;28;20485;-87
2021/01/31 07:25:30;;;;;;;17.63;11.13;;;;;;;1.94;100.00;94606.47;5062109;28;20431;-87
2021/01/31 07:28:02;;;;;;;19.07;12.37;;;;;;;1.82;100.00;94610.69;5061356;28;20437;-88
2021/01/31 07:30:35;;;;;;;22.40;11.87;;;;;;;1.81;100.00;94606.63;5061144;28;20809;-88
2021/01/31 07:33:10;;;;;;;19.93;11.93;;;;;;;2.01;100.00;94616.44;5061920;28;20533;-87
2021/01/31 07:35:45;;;;;;;21.63;12.60;;;;;;;1.97;100.00;94613.41;5061203;28;20533;-87
2021/01/31 07:38:18;;;;;;;16.60;10.87;;;;;;;2.10;100.00;94615.22;5060591;28;20465;-87
2021/01/31 07:40:47;;;;;;;19.23;11.73;;;;;;;2.08;100.00;94615.06;5061366;28;20439;-87
2021/01/31 07:43:17;;;;;;;18.23;11.60;;;;;;;2.07;100.00;94617.00;5061089;28;20486;-88
2021/01/31 07:45:44;;;;;;;16.43;10.63;;;;;;;1.94;100.00;94625.09;5061074;28;20453;-87
2021/01/31 07:49:04;;;;;;;19.00;11.83;;;;;;;1.96;100.00;94630.63;5061672;28;20439;-87
2021/01/31 07:52:06;;;;;;;15.73;11.03;;;;;;;1.94;100.00;94625.09;4981013;28;20434;-86
2021/01/31 07:54:36;;;;;;;19.40;12.47;;;;;;;1.89;100.00;94623.31;4942277;29;20534;-87
2021/01/31 07:57:24;;;;;;;18.80;13.07;;;;;;;1.90;100.00;94622.06;5041957;28;20446;-87
2021/01/31 07:59:51;;;;;;;19.20;12.23;;;;;;;2.03;100.00;94621.97;5061034;28;20429;-86
2021/01/31 08:02:33;;;;;;;21.10;12.90;;;;;;;2.12;100.00;94624.13;5059455;28;20494;-87
2021/01/31 08:05:00;;;;;;;16.43;11.23;;;;;;;1.99;100.00;94624.25;5062579;28;20472;-87
2021/01/31 08:08:02;;;;;;;17.20;11.10;;;;;;;2.16;100.00;94623.78;5062551;28;20811;-87
2021/01/31 08:10:49;;;;;;;18.80;12.13;;;;;;;2.18;100.00;94621.31;5059991;28;20434;-87
2021/01/31 08:13:37;;;;;;;18.40;11.80;;;;;;;2.10;100.00;94623.22;5058996;28;20462;-87
2021/01/31 08:16:41;;;;;;;19.30;12.97;;;;;;;2.08;100.00;94625.69;5060062;28;20491;-87
2021/01/31 08:19:24;;;;;;;16.00;10.60;;;;;;;2.16;100.00;94627.13;5060898;28;20457;-87
2021/01/31 08:21:54;;;;;;;17.17;12.27;;;;;;;2.22;100.00;94634.97;5060100;28;20511;-87
2021/01/31 08:24:59;;;;;;;18.57;11.07;;;;;;;2.25;100.00;94635.88;5060216;28;20418;-87
2021/01/31 08:27:48;;;;;;;17.90;10.70;;;;;;;2.32;100.00;94648.50;5060734;28;20495;-87
2021/01/31 08:30:22;;;;;;;15.50;10.83;;;;;;;2.38;100.00;94647.06;5060855;28;20419;-87
2021/01/31 08:33:13;;;;;;;20.37;11.80;;;;;;;2.47;100.00;94635.94;5060240;28;20486;-86
2021/01/31 08:35:58;;;;;;;18.03;10.73;;;;;;;2.48;100.00;94636.63;5062443;28;20427;-87
2021/01/31 08:38:35;;;;;;;19.07;12.80;;;;;;;2.43;100.00;94632.19;5063473;28;20458;-87
2021/01/31 08:41:32;;;;;;;18.53;11.70;;;;;;;2.44;100.00;94636.28;5060449;28;20430;-87
2021/01/31 08:44:19;;;;;;;16.67;11.30;;;;;;;2.43;100.00;94640.19;5059148;28;20435;-87
2021/01/31 08:46:56;;;;;;;17.83;10.50;;;;;;;2.45;100.00;94643.03;5059973;28;20453;-87
2021/01/31 08:49:23;;;;;;;15.67;10.80;;;;;;;2.34;100.00;94646.72;5060205;28;20430;-87
2021/01/31 08:51:58;;;;;;;14.00;9.73;;;;;;;2.45;100.00;94656.31;5060239;28;20506;-87
2021/01/31 08:54:25;;;;;;;15.93;10.03;;;;;;;2.18;100.00;94658.53;5060465;28;20879;-87
2021/01/31 08:56:54;;;;;;;15.73;10.37;;;;;;;2.19;100.00;94656.59;5060615;28;20478;-87
2021/01/31 08:59:23;;;;;;;16.50;10.47;;;;;;;2.28;100.00;94656.09;5059177;28;20508;-86
2021/01/31 09:01:53;;;;;;;14.10;10.60;;;;;;;2.14;100.00;94642.22;5059648;28;20541;-87
2021/01/31 09:04:21;;;;;;;18.33;12.73;;;;;;;2.26;100.00;94656.63;5059103;28;20919;-87
2021/01/31 09:06:50;;;;;;;18.97;11.37;;;;;;;2.33;100.00;94655.94;5059360;28;20438;-87
2021/01/31 09:09:22;;;;;;;18.10;11.90;;;;;;;2.27;100.00;94654.66;5060308;28;20429;-87
2021/01/31 09:11:51;;;;;;;17.30;11.40;;;;;;;2.31;100.00;94666.41;5059892;28;20431;-87
2021/01/31 09:14:20;;;;;;;18.87;11.37;;;;;;;2.32;100.00;94651.84;5059597;28;20926;-87
2021/01/31 09:16:46;;;;;;;16.20;11.27;;;;;;;2.39;100.00;94663.75;5060757;28;20506;-87
2021/01/31 09:19:19;;;;;;;17.50;11.40;;;;;;;2.35;100.00;94666.75;5074704;28;20426;-87
2021/01/31 09:21:47;;;;;;;16.30;11.90;;;;;;;2.34;100.00;94661.97;5078584;28;20466;-86
2021/01/31 09:24:18;;;;;;;15.97;11.00;;;;;;;2.32;100.00;94672.44;5078878;28;20466;-87
2021/01/31 09:26:50;;;;;;;16.70;10.90;;;;;;;2.42;100.00;94666.09;5073982;28;20405;-87
2021/01/31 09:29:21;;;;;;;20.57;12.77;;;;;;;2.50;100.00;94672.16;5058145;28;20450;-87
2021/01/31 09:31:52;;;;;;;18.43;12.73;;;;;;;2.31;100.00;94676.34;5058284;28;20431;-86
2021/01/31 09:34:21;;;;;;;16.77;11.90;;;;;;;2.44;100.00;94678.88;5058310;28;20419;-86
2021/01/31 09:37:03;;;;;;;20.27;12.33;;;;;;;2.48;100.00;94681.88;5059026;28;20489;-86
2021/01/31 09:39:32;;;;;;;20.17;12.37;;;;;;;2.51;100.00;94681.53;5061148;28;20883;-87
2021/01/31 09:41:59;;;;;;;14.90;11.50;;;;;;;2.75;100.00;94677.00;5058908;28;20490;-87
2021/01/31 09:44:26;;;;;;;17.60;12.33;;;;;;;2.62;100.00;94683.19;5057930;28;20439;-86
2021/01/31 09:46:52;;;;;;;17.73;12.33;;;;;;;2.72;100.00;94688.72;5058824;28;20512;-88
2021/01/31 09:49:22;;;;;;;17.83;12.17;;;;;;;2.58;100.00;94686.19;5058288;28;20454;-88
2021/01/31 09:51:49;;;;;;;20.27;12.07;;;;;;;2.54;100.00;94685.09;5058645;28;20468;-88
2021/01/31 09:54:17;;;;;;;18.37;11.27;;;;;;;2.47;100.00;94688.47;5058593;28;20804;-87
2021/01/31 09:56:47;;;;;;;16.53;10.63;;;;;;;2.68;100.00;94684.44;5057869;28;20447;-86
2021/01/31 09:59:24;;;;;;;20.10;13.43;;;;;;;2.75;100.00;94685.00;5056543;28;20438;-87
2021/01/31 10:01:51;;;;;;;19.27;11.67;;;;;;;2.90;100.00;94691.06;5057797;28;20492;-87
2021/01/31 10:04:21;;;;;;;17.60;11.80;;;;;;;2.79;100.00;94696.72;5062959;28;20977;-89
2021/01/31 10:06:50;;;;;;;17.67;11.97;;;;;;;2.73;100.00;94704.16;5065301;28;20454;-88
2021/01/31 10:09:28;;;;;;;20.00;13.20;;;;;;;2.92;100.00;94693.91;5069708;28;20438;-88
2021/01/31 10:12:14;;;;;;;19.80;12.63;;;;;;;2.86;100.00;94688.03;5077890;28;20445;-87
2021/01/31 10:14:42;;;;;;;19.07;12.80;;;;;;;2.90;100.00;94685.03;5077793;28;20441;-88
2021/01/31 10:17:14;;;;;;;18.73;12.77;;;;;;;3.02;100.00;94686.09;5067638;28;20438;-87
2021/01/31 10:19:40;;;;;;;15.90;11.53;;;;;;;3.10;100.00;94678.84;5061551;28;20423;-87
2021/01/31 10:22:14;;;;;;;21.17;13.20;;;;;;;3.12;100.00;94661.09;5061651;28;20532;-87
2021/01/31 10:24:47;;;;;;;23.80;12.57;;;;;;;3.24;100.00;94669.44;5061907;28;20434;-87
2021/01/31 10:27:22;;;;;;;20.63;12.80;;;;;;;3.22;100.00;94672.66;5062015;28;20418;-87
2021/01/31 10:29:50;;;;;;;19.40;12.40;;;;;;;3.21;100.00;94668.56;5061788;28;20442;-88
2021/01/31 10:32:40;;;;;;;20.00;12.80;;;;;;;3.20;100.00;94651.13;5062412;28;20470;-86
2021/01/31 10:35:27;;;;;;;19.23;11.90;;;;;;;3.38;100.00;94656.66;5054551;28;20457;-88
2021/01/31 10:37:55;;;;;;;21.50;14.33;;;;;;;3.45;99.90;94656.63;5057859;28;20446;-88
2021/01/31 10:40:22;;;;;;;22.90;13.00;;;;;;;3.48;99.14;94654.84;5056540;28;20438;-88
2021/01/31 10:42:49;;;;;;;17.70;12.50;;;;;;;3.53;100.00;94656.66;5056726;28;20545;-88
2021/01/31 10:45:19;;;;;;;22.37;14.17;;;;;;;3.76;99.05;94657.31;5057884;28;20430;-86
2021/01/31 10:47:46;;;;;;;19.43;12.30;;;;;;;3.94;98.79;94661.56;5057388;28;20446;-87
2021/01/31 10:50:14;;;;;;;19.33;12.33;;;;;;;4.01;96.99;94662.81;5057800;28;20422;-87
2021/01/31 10:52:42;;;;;;;19.40;11.40;;;;;;;3.91;96.78;94662.63;5056636;28;20473;-86
2021/01/31 10:55:10;;;;;;;20.93;12.53;;;;;;;3.71;96.27;94666.22;5056668;28;20490;-86
2021/01/31 10:57:36;;;;;;;16.43;10.30;;;;;;;3.66;96.74;94667.84;5056147;28;20926;-88
2021/01/31 11:00:08;;;;;;;17.67;10.80;;;;;;;3.84;96.37;94668.69;5057177;28;20448;-88
2021/01/31 11:02:35;;;;;;;20.93;11.20;;;;;;;4.04;96.92;94680.41;5056057;28;20584;-88
2021/01/31 11:05:01;;;;;;;20.20;12.80;;;;;;;3.97;96.44;94671.16;5056824;28;20431;-87
2021/01/31 11:07:27;;;;;;;17.60;10.30;;;;;;;3.85;96.14;94664.78;5056087;28;20518;-87
2021/01/31 11:09:54;;;;;;;16.30;11.40;;;;;;;3.81;97.12;94664.44;5057726;28;20453;-87
2021/01/31 11:12:20;;;;;;;15.73;11.60;;;;;;;3.60;97.11;94661.28;5057254;28;20469;-87
2021/01/31 11:14:47;;;;;;;15.17;11.30;;;;;;;3.50;97.71;94657.72;5059176;28;20833;-87
2021/01/31 11:17:14;;;;;;;22.03;12.67;;;;;;;3.44;98.16;94657.19;5059778;28;20451;-86
2021/01/31 11:19:40;;;;;;;21.07;12.37;;;;;;;3.43;98.41;94656.47;5060526;28;20457;-86
2021/01/31 11:22:07;;;;;;;18.50;12.20;;;;;;;3.35;99.12;94652.41;5059489;28;20581;-87
2021/01/31 11:24:33;;;;;;;19.90;12.63;;;;;;;3.47;98.98;94640.84;5059240;28;20434;-87
2021/01/31 11:27:00;;;;;;;17.70;11.57;;;;;;;3.42;98.55;94649.00;5059223;28;20450;-88
2021/01/31 11:29:26;;;;;;;19.80;12.73;;;;;;;3.45;98.12;94647.94;5058213;28;20439;-86
2021/01/31 11:31:53;;;;;;;19.77;12.17;;;;;;;3.63;98.33;94649.53;5060951;28;20469;-88
2021/01/31 11:34:20;;;;;;;17.87;12.07;;;;;;;3.67;97.84;94653.25;5062354;28;20596;-88
2021/01/31 11:36:47;;;;;;;17.73;11.90;;;;;;;3.60;97.10;94650.59;5063246;28;20938;-88
2021/01/31 11:39:13;;;;;;;21.47;13.10;;;;;;;3.67;97.43;94653.25;5063839;28;20521;-87
2021/01/31 11:41:40;;;;;;;16.33;11.63;;;;;;;3.61;96.46;94657.34;5061984;28;20482;-87
2021/01/31 11:44:08;;;;;;;18.10;12.40;;;;;;;3.92;96.89;94653.38;5061352;28;20856;-87